Time;durP1;ratioP1;P1;durP2;ratioP2;P2;SDS_P1;SDS_P2;PMS_P1;PMS_P2;Temp;Humidity;BMP_temperature;BMP_pressure;BME280_temperature;BME280_humidity;BME280_pressure;Samples;Min_cycle;Max_cycle;Signal;HPM_P1;HPM_P2
2022/05/18 00:00:13;;;;;;;27.73;15.65;;;20.20;99.90;;;;;;5022117;28;20088;-74
2022/05/18 00:02:39;;;;;;;25.23;15.35;;;20.30;99.90;;;;;;5020898;28;20065;-74
2022/05/18 00:05:06;;;;;;;25.58;15.57;;;20.30;99.90;;;;;;5020724;28;20544;-74
2022/05/18 00:07:32;;;;;;;29.00;15.65;;;20.40;99.90;;;;;;5022325;28;20152;-74
2022/05/18 00:09:59;;;;;;;27.13;16.40;;;20.40;99.90;;;;;;5028156;28;20062;-74
2022/05/18 00:12:26;;;;;;;25.40;15.50;;;20.40;99.90;;;;;;5037347;28;20038;-74
2022/05/18 00:14:54;;;;;;;29.08;18.10;;;20.40;99.90;;;;;;5036206;28;20049;-74
2022/05/18 00:17:19;;;;;;;26.73;18.90;;;20.50;99.90;;;;;;5025877;28;20037;-73
2022/05/18 00:19:45;;;;;;;28.83;20.45;;;20.50;99.90;;;;;;5020713;28;20052;-75
2022/05/18 00:22:12;;;;;;;34.30;22.23;;;20.50;99.90;;;;;;5025133;28;20041;-74
2022/05/18 00:24:40;;;;;;;31.13;21.25;;;20.50;99.90;;;;;;5022509;28;20145;-75
2022/05/18 00:27:06;;;;;;;34.38;21.98;;;20.50;99.90;;;;;;5037977;28;20431;-74
2022/05/18 00:29:34;;;;;;;32.55;21.42;;;20.50;99.90;;;;;;5037922;28;20041;-74
2022/05/18 00:32:00;;;;;;;33.35;21.85;;;20.50;99.90;;;;;;5022355;28;20087;-74
2022/05/18 00:34:27;;;;;;;33.28;25.33;;;20.50;99.90;;;;;;5033212;28;20128;-73
2022/05/18 00:36:53;;;;;;;29.60;23.77;;;20.40;99.90;;;;;;5056348;28;20473;-74
2022/05/18 00:39:21;;;;;;;31.65;23.27;;;20.50;99.90;;;;;;5022391;28;20033;-73
2022/05/18 00:41:48;;;;;;;34.15;23.23;;;20.50;99.90;;;;;;5021150;28;20050;-73
2022/05/18 00:44:13;;;;;;;31.77;23.92;;;20.40;99.90;;;;;;5035334;28;20048;-74
2022/05/18 00:46:40;;;;;;;39.75;27.13;;;20.30;99.90;;;;;;5023252;28;20041;-74
2022/05/18 00:49:08;;;;;;;33.50;24.35;;;20.30;99.90;;;;;;5024893;28;20053;-75
2022/05/18 00:51:47;;;;;;;35.17;25.90;;;20.30;99.90;;;;;;5037690;28;20051;-73
2022/05/18 00:54:18;;;;;;;30.02;21.25;;;20.10;99.90;;;;;;5022601;28;20518;-74
2022/05/18 00:57:00;;;;;;;25.42;19.23;;;19.90;99.90;;;;;;5054342;28;20029;-74
2022/05/18 00:59:31;;;;;;;31.17;20.35;;;19.80;99.90;;;;;;5019102;28;20129;-75
2022/05/18 01:02:01;;;;;;;31.75;19.33;;;19.80;99.90;;;;;;5024466;28;20037;-74
2022/05/18 01:04:28;;;;;;;32.40;18.85;;;19.90;99.90;;;;;;5017261;28;20047;-73
2022/05/18 01:07:07;;;;;;;27.80;18.15;;;19.80;99.90;;;;;;5020695;28;20092;-74
2022/05/18 01:09:43;;;;;;;29.88;18.60;;;19.80;99.90;;;;;;5022210;28;20045;-74
2022/05/18 01:12:11;;;;;;;28.52;17.80;;;19.80;99.90;;;;;;5023005;28;20254;-73
2022/05/18 01:14:45;;;;;;;26.55;17.75;;;19.80;99.90;;;;;;5023439;28;20049;-74
2022/05/18 01:17:17;;;;;;;25.40;16.98;;;19.90;99.90;;;;;;5033686;28;20474;-74
2022/05/18 01:19:48;;;;;;;28.70;18.52;;;20.00;99.90;;;;;;5028435;28;20378;-74
2022/05/18 01:22:27;;;;;;;28.30;18.80;;;20.10;99.90;;;;;;5023057;28;20049;-75
2022/05/18 01:25:15;;;;;;;24.20;17.88;;;20.10;99.90;;;;;;5036079;28;20447;-74
2022/05/18 01:27:42;;;;;;;28.83;19.02;;;20.10;99.90;;;;;;5035075;28;20494;-73
2022/05/18 01:30:09;;;;;;;30.20;19.30;;;20.20;99.90;;;;;;5019590;28;20061;-74
2022/05/18 01:32:45;;;;;;;28.70;19.67;;;20.10;99.90;;;;;;5053577;28;20038;-73
2022/05/18 01:35:15;;;;;;;26.08;16.80;;;20.20;99.90;;;;;;5017235;28;20041;-74
2022/05/18 01:37:42;;;;;;;24.00;16.85;;;20.20;99.90;;;;;;5024214;28;20096;-74
2022/05/18 01:40:26;;;;;;;29.40;18.23;;;20.20;99.90;;;;;;5020931;28;20571;-74
2022/05/18 01:43:03;;;;;;;24.00;16.52;;;20.20;99.90;;;;;;5023180;28;20489;-73
2022/05/18 01:45:28;;;;;;;31.85;18.67;;;20.30;99.90;;;;;;5018870;28;20041;-74
2022/05/18 01:48:06;;;;;;;28.92;19.42;;;20.30;99.90;;;;;;5035395;28;20033;-74
2022/05/18 01:50:32;;;;;;;31.77;19.42;;;20.30;99.90;;;;;;5039277;28;20040;-73
2022/05/18 01:52:58;;;;;;;27.75;18.95;;;20.20;99.90;;;;;;5024287;28;20502;-73
2022/05/18 01:55:24;;;;;;;32.13;20.45;;;20.20;99.90;;;;;;5003938;28;20133;-73
2022/05/18 01:57:50;;;;;;;25.52;18.05;;;20.20;99.90;;;;;;5034619;28;20121;-74
2022/05/18 02:00:17;;;;;;;29.35;18.33;;;20.20;99.90;;;;;;5018995;28;20479;-74
2022/05/18 02:02:43;;;;;;;24.92;18.77;;;20.20;99.90;;;;;;5035640;28;20037;-75
2022/05/18 02:05:09;;;;;;;31.45;19.95;;;20.10;99.90;;;;;;5013389;28;20034;-74
2022/05/18 02:07:35;;;;;;;28.73;20.15;;;20.20;99.90;;;;;;5030329;28;20124;-74
2022/05/18 02:10:02;;;;;;;29.50;18.92;;;20.30;99.90;;;;;;5030129;28;20475;-74
2022/05/18 02:12:28;;;;;;;31.58;20.00;;;20.30;99.90;;;;;;5043913;28;20045;-74
2022/05/18 02:14:54;;;;;;;30.50;19.67;;;20.30;99.90;;;;;;5023624;28;20034;-74
2022/05/18 02:17:20;;;;;;;32.42;19.90;;;20.20;99.90;;;;;;5019392;28;20034;-74
2022/05/18 02:19:46;;;;;;;27.15;19.25;;;20.30;99.90;;;;;;5026808;28;20042;-74
2022/05/18 02:22:12;;;;;;;26.58;18.35;;;20.30;99.90;;;;;;5032509;28;20099;-74
2022/05/18 02:24:38;;;;;;;25.00;16.23;;;20.20;99.90;;;;;;5029614;28;20393;-74
2022/05/18 02:27:05;;;;;;;24.70;17.33;;;20.20;99.90;;;;;;5022809;28;20036;-74
2022/05/18 02:29:31;;;;;;;22.65;15.02;;;20.20;99.90;;;;;;5021722;28;20034;-73
2022/05/18 02:31:57;;;;;;;19.55;14.02;;;20.10;99.90;;;;;;5057230;28;20075;-73
2022/05/18 02:34:23;;;;;;;24.02;14.98;;;20.20;99.90;;;;;;5020344;28;20052;-72
2022/05/18 02:36:49;;;;;;;21.33;15.07;;;20.10;99.90;;;;;;5054743;28;20370;-74
2022/05/18 02:39:15;;;;;;;21.48;14.25;;;20.20;99.90;;;;;;5026604;28;20052;-73
2022/05/18 02:41:42;;;;;;;24.00;15.00;;;20.20;99.90;;;;;;5035921;28;20045;-74
2022/05/18 02:44:09;;;;;;;29.15;14.23;;;20.20;99.90;;;;;;5027243;28;20063;-73
2022/05/18 02:46:35;;;;;;;23.10;14.75;;;20.20;99.90;;;;;;5024598;28;20065;-73
2022/05/18 02:49:00;;;;;;;23.25;15.95;;;20.20;99.90;;;;;;5026503;28;20394;-74
2022/05/18 02:51:26;;;;;;;23.75;14.65;;;20.20;99.90;;;;;;5024915;28;20141;-73
2022/05/18 02:53:52;;;;;;;27.90;14.38;;;20.20;99.90;;;;;;5029719;28;20056;-75
2022/05/18 02:56:25;;;;;;;22.02;13.95;;;20.10;99.90;;;;;;5022168;28;20038;-74
2022/05/18 02:58:53;;;;;;;24.63;15.45;;;20.20;99.90;;;;;;5056438;28;20485;-75
2022/05/18 03:01:27;;;;;;;24.77;15.27;;;20.20;99.90;;;;;;5036826;28;20124;-74
2022/05/18 03:03:54;;;;;;;26.77;15.32;;;20.10;99.90;;;;;;5040191;28;20116;-74
2022/05/18 03:06:23;;;;;;;26.30;16.10;;;20.10;99.90;;;;;;5027316;28;20133;-74
2022/05/18 03:08:50;;;;;;;27.27;15.05;;;20.10;99.90;;;;;;5040961;28;20051;-73
2022/05/18 03:11:18;;;;;;;24.85;15.23;;;20.10;99.90;;;;;;5039248;28;20397;-75
2022/05/18 03:13:44;;;;;;;27.25;15.82;;;20.10;99.90;;;;;;5053635;28;20576;-73
2022/05/18 03:16:10;;;;;;;24.55;15.05;;;20.10;99.90;;;;;;5029216;28;20045;-74
2022/05/18 03:18:37;;;;;;;26.25;15.48;;;20.10;99.90;;;;;;5027639;28;20103;-73
2022/05/18 03:23:48;;;;;;;23.52;14.88;;;20.10;99.90;;;;;;5025939;28;20043;-74
2022/05/18 03:26:18;;;;;;;25.60;13.98;;;20.20;99.90;;;;;;5018899;28;20026;-74
2022/05/18 03:28:47;;;;;;;22.48;14.82;;;20.20;99.90;;;;;;5021221;28;20662;-73
2022/05/18 03:31:16;;;;;;;25.65;13.77;;;20.20;99.90;;;;;;5010950;28;20048;-74
2022/05/18 03:33:43;;;;;;;23.27;15.40;;;20.20;99.90;;;;;;5025083;28;20466;-73
2022/05/18 03:36:12;;;;;;;23.75;15.13;;;20.20;99.90;;;;;;5037719;28;20507;-74
2022/05/18 03:38:40;;;;;;;21.27;14.23;;;20.20;99.90;;;;;;5050864;28;20045;-74
2022/05/18 03:41:06;;;;;;;21.85;14.13;;;20.30;99.90;;;;;;5021352;28;20038;-73
2022/05/18 03:43:32;;;;;;;24.58;14.38;;;20.20;99.90;;;;;;5021781;28;20439;-74
2022/05/18 03:45:59;;;;;;;21.65;13.50;;;20.20;99.90;;;;;;5021060;28;20065;-74
2022/05/18 03:48:26;;;;;;;22.90;13.13;;;20.20;99.90;;;;;;5021940;28;20041;-74
2022/05/18 03:50:54;;;;;;;19.10;11.98;;;20.20;99.90;;;;;;5026654;28;20037;-74
2022/05/18 03:53:20;;;;;;;20.33;12.05;;;20.20;99.90;;;;;;5036406;28;20041;-74
2022/05/18 03:55:47;;;;;;;19.10;11.90;;;20.20;99.90;;;;;;5021290;28;20390;-74
2022/05/18 03:58:14;;;;;;;24.90;11.55;;;20.20;99.90;;;;;;5032123;28;20220;-74
2022/05/18 04:00:41;;;;;;;19.08;11.13;;;20.30;99.90;;;;;;5038159;28;20458;-73
2022/05/18 04:03:08;;;;;;;17.08;9.40;;;20.20;99.90;;;;;;5018462;28;20445;-73
2022/05/18 04:05:37;;;;;;;24.98;9.70;;;20.30;99.90;;;;;;5035766;28;20053;-74
2022/05/18 04:08:04;;;;;;;16.67;8.35;;;20.30;99.90;;;;;;5017473;28;20535;-73
2022/05/18 04:10:31;;;;;;;18.48;7.90;;;20.20;99.90;;;;;;5001215;28;20065;-73
2022/05/18 04:12:57;;;;;;;16.55;7.18;;;20.20;99.90;;;;;;5023967;28;20666;-73
2022/05/18 04:15:23;;;;;;;16.75;6.97;;;20.30;99.90;;;;;;5056450;28;20037;-74
2022/05/18 04:17:49;;;;;;;16.35;7.45;;;20.30;99.90;;;;;;5041116;28;20045;-73
2022/05/18 04:20:19;;;;;;;12.48;6.75;;;20.30;99.90;;;;;;5051218;28;20037;-73
2022/05/18 04:22:45;;;;;;;19.80;7.20;;;20.30;99.90;;;;;;5023536;28;20427;-73
2022/05/18 04:25:15;;;;;;;16.33;6.72;;;20.30;99.90;;;;;;5010011;28;20099;-73
2022/05/18 04:27:42;;;;;;;15.85;6.65;;;20.40;99.90;;;;;;5036705;28;20580;-74
2022/05/18 04:30:09;;;;;;;17.63;5.93;;;20.30;99.90;;;;;;5033372;28;20034;-74
2022/05/18 04:32:38;;;;;;;14.80;6.20;;;20.30;99.90;;;;;;5008085;28;20095;-73
2022/05/18 04:35:06;;;;;;;11.57;5.90;;;20.30;99.90;;;;;;5022698;28;20044;-74
2022/05/18 04:37:32;;;;;;;13.48;6.25;;;20.30;99.90;;;;;;5003035;28;20041;-75
2022/05/18 04:39:58;;;;;;;13.57;6.13;;;20.40;99.90;;;;;;5018607;28;20045;-74
2022/05/18 04:42:24;;;;;;;17.30;6.18;;;20.40;99.90;;;;;;5021990;28;20064;-74
2022/05/18 04:44:50;;;;;;;16.92;6.25;;;20.40;99.90;;;;;;5019923;28;20562;-74
2022/05/18 04:47:20;;;;;;;14.30;6.63;;;20.50;99.90;;;;;;5022830;28;20059;-73
2022/05/18 04:49:46;;;;;;;15.15;8.02;;;20.50;99.90;;;;;;5038539;28;20037;-77
2022/05/18 04:52:12;;;;;;;19.05;7.10;;;20.60;99.90;;;;;;5019836;28;20484;-74
2022/05/18 04:54:40;;;;;;;17.85;7.38;;;20.60;99.90;;;;;;5040444;28;20144;-75
2022/05/18 04:57:06;;;;;;;16.05;6.70;;;20.60;99.90;;;;;;5021141;28;20041;-73
2022/05/18 04:59:32;;;;;;;15.60;6.72;;;20.70;99.90;;;;;;5023037;28;20087;-77
2022/05/18 05:01:59;;;;;;;16.52;7.03;;;20.70;99.90;;;;;;5038334;28;20103;-73
2022/05/18 05:04:25;;;;;;;15.95;7.25;;;20.80;99.90;;;;;;5021983;28;20087;-75
2022/05/18 05:06:51;;;;;;;16.77;6.03;;;20.80;99.90;;;;;;5027336;28;20540;-73
2022/05/18 05:09:22;;;;;;;12.70;6.43;;;20.90;99.90;;;;;;5023353;28;20044;-74
2022/05/18 05:11:48;;;;;;;16.98;5.97;;;20.90;99.90;;;;;;5027522;28;20144;-75
2022/05/18 05:14:14;;;;;;;16.05;5.90;;;21.00;99.90;;;;;;5021706;28;20041;-74
2022/05/18 05:16:40;;;;;;;17.55;6.32;;;21.10;99.90;;;;;;5009771;28;20056;-74
2022/05/18 05:19:06;;;;;;;16.00;6.60;;;21.20;99.90;;;;;;5025549;28;20070;-74
2022/05/18 05:21:32;;;;;;;16.33;5.65;;;21.20;99.90;;;;;;5038663;28;20522;-74
2022/05/18 05:23:58;;;;;;;21.75;9.68;;;21.20;99.90;;;;;;5034399;28;20053;-74
2022/05/18 05:26:24;;;;;;;14.30;6.70;;;21.30;99.90;;;;;;5004136;28;20095;-75
2022/05/18 05:28:51;;;;;;;14.52;6.00;;;21.30;99.90;;;;;;5024812;28;20088;-75
2022/05/18 05:31:16;;;;;;;19.10;5.88;;;21.40;99.90;;;;;;5026185;28;20378;-74
2022/05/18 05:33:43;;;;;;;15.80;6.03;;;21.50;99.90;;;;;;5016605;28;20048;-74
2022/05/18 05:36:10;;;;;;;15.18;6.30;;;21.60;99.90;;;;;;5008066;28;20029;-74
2022/05/18 05:38:36;;;;;;;14.15;6.07;;;21.60;99.90;;;;;;5042009;28;20044;-74
2022/05/18 05:41:03;;;;;;;14.70;6.22;;;21.70;99.90;;;;;;5023586;28;20030;-74
2022/05/18 05:43:33;;;;;;;14.80;6.40;;;21.90;99.90;;;;;;5036471;28;20195;-75
2022/05/18 05:46:05;;;;;;;17.98;6.00;;;22.00;99.90;;;;;;5028318;28;20378;-75
2022/05/18 05:48:32;;;;;;;;;;;22.10;99.90;;;;;;5019941;28;20064;-74
2022/05/18 05:51:00;;;;;;;12.43;6.22;;;22.20;99.90;;;;;;5020661;28;20618;-74
2022/05/18 05:53:27;;;;;;;16.42;7.38;;;22.20;99.90;;;;;;5019203;28;20068;-74
2022/05/18 05:55:54;;;;;;;14.40;6.50;;;22.40;99.90;;;;;;5024057;28;20045;-77
2022/05/18 05:58:22;;;;;;;13.75;7.00;;;22.50;99.90;;;;;;5025763;28;20041;-75
2022/05/18 06:00:48;;;;;;;19.20;6.93;;;22.60;99.90;;;;;;5027973;28;20066;-75
2022/05/18 06:03:18;;;;;;;11.15;5.65;;;22.70;99.90;;;;;;5015913;28;20033;-75
2022/05/18 06:05:44;;;;;;;14.55;6.38;;;22.80;99.90;;;;;;5035999;28;20028;-75
2022/05/18 06:08:11;;;;;;;16.08;6.75;;;22.80;99.90;;;;;;5027737;28;20064;-78
2022/05/18 06:10:38;;;;;;;13.23;5.72;;;22.90;99.90;;;;;;5037185;28;20067;-76
2022/05/18 06:13:09;;;;;;;17.50;6.03;;;23.00;99.90;;;;;;5021465;28;20091;-76
2022/05/18 06:15:36;;;;;;;15.95;6.10;;;23.10;99.90;;;;;;5023288;28;20035;-75
2022/05/18 06:18:02;;;;;;;15.68;6.25;;;23.20;99.90;;;;;;5030279;28;20053;-74
2022/05/18 06:20:29;;;;;;;19.70;6.35;;;23.40;99.90;;;;;;5021527;28;20046;-75
2022/05/18 06:22:59;;;;;;;22.58;7.07;;;23.50;99.90;;;;;;5057153;28;20029;-74
2022/05/18 06:25:24;;;;;;;21.00;6.45;;;23.60;99.90;;;;;;5036382;28;20048;-74
2022/05/18 06:27:51;;;;;;;18.35;6.47;;;23.70;99.90;;;;;;5035818;28;20033;-74
2022/05/18 06:30:17;;;;;;;18.38;7.00;;;23.70;99.90;;;;;;5022230;28;20044;-77
2022/05/18 06:32:43;;;;;;;15.05;6.85;;;23.90;99.90;;;;;;5019667;28;20109;-74
2022/05/18 06:35:10;;;;;;;17.20;7.07;;;24.00;99.90;;;;;;5016461;28;20041;-74
2022/05/18 06:37:36;;;;;;;18.83;7.28;;;24.00;99.90;;;;;;5022096;28;20547;-74
2022/05/18 06:40:08;;;;;;;12.57;6.50;;;24.10;99.90;;;;;;5017730;28;20038;-74
2022/05/18 06:42:35;;;;;;;17.58;7.10;;;24.20;99.90;;;;;;5022795;28;20042;-75
2022/05/18 06:45:03;;;;;;;15.27;6.45;;;24.30;99.90;;;;;;5019418;28;20554;-75
2022/05/18 06:47:30;;;;;;;19.17;6.10;;;24.40;99.90;;;;;;5007754;28;20042;-74
2022/05/18 06:49:57;;;;;;;16.33;6.38;;;24.50;99.90;;;;;;5033983;28;20042;-73
2022/05/18 06:52:24;;;;;;;14.35;6.53;;;24.50;99.90;;;;;;5038098;28;20038;-74
2022/05/18 06:54:51;;;;;;;15.70;6.97;;;24.60;99.90;;;;;;5034713;28;20057;-75
2022/05/18 06:57:17;;;;;;;22.60;7.85;;;24.60;99.90;;;;;;5034699;28;20060;-74
2022/05/18 06:59:43;;;;;;;29.25;11.82;;;24.60;99.90;;;;;;5019528;28;20102;-75
2022/05/18 07:02:09;;;;;;;29.55;12.18;;;24.60;99.90;;;;;;5037045;28;20549;-75
2022/05/18 07:04:35;;;;;;;23.30;12.75;;;24.60;99.90;;;;;;5018781;28;20034;-74
2022/05/18 07:07:02;;;;;;;23.42;12.45;;;24.60;99.90;;;;;;5014210;28;20045;-76
2022/05/18 07:09:29;;;;;;;30.48;14.60;;;24.70;99.90;;;;;;5035564;28;20112;-74
2022/05/18 07:11:55;;;;;;;20.63;12.93;;;24.60;99.90;;;;;;5022501;28;20055;-74
2022/05/18 07:14:26;;;;;;;26.25;11.50;;;24.70;99.90;;;;;;5019430;28;20053;-74
2022/05/18 07:16:52;;;;;;;19.40;9.73;;;24.80;99.90;;;;;;5026757;28;20041;-74
2022/05/18 07:19:19;;;;;;;36.85;12.88;;;24.90;99.90;;;;;;5021705;28;20045;-75
2022/05/18 07:21:47;;;;;;;32.97;12.93;;;25.00;99.90;;;;;;5024921;28;20065;-74
2022/05/18 07:24:14;;;;;;;24.13;12.38;;;25.10;99.90;;;;;;5035026;28;20473;-75
2022/05/18 07:26:41;;;;;;;29.17;14.05;;;25.20;99.90;;;;;;5025787;28;20057;-75
2022/05/18 07:29:08;;;;;;;30.48;15.07;;;25.30;99.90;;;;;;5024752;28;20160;-75
2022/05/18 07:34:21;;;;;;;25.98;13.52;;;25.30;99.90;;;;;;5018084;28;20149;-74
2022/05/18 07:36:51;;;;;;;28.75;13.52;;;25.40;99.90;;;;;;5029668;28;20038;-74
2022/05/18 07:39:18;;;;;;;27.10;12.77;;;25.60;99.90;;;;;;5018815;28;20153;-74
2022/05/18 07:41:44;;;;;;;24.90;11.35;;;25.70;99.90;;;;;;5017059;28;20498;-75
2022/05/18 07:44:12;;;;;;;20.38;10.43;;;25.80;99.90;;;;;;5019199;28;20052;-75
2022/05/18 07:46:38;;;;;;;21.70;10.48;;;25.90;99.90;;;;;;5005819;28;20572;-74
2022/05/18 07:49:04;;;;;;;26.40;11.10;;;25.90;99.90;;;;;;5025422;28;20049;-75
2022/05/18 07:51:31;;;;;;;22.75;10.20;;;26.00;99.90;;;;;;5019481;28;20042;-74
2022/05/18 07:53:58;;;;;;;18.83;8.75;;;26.10;99.90;;;;;;5016426;28;20137;-75
2022/05/18 07:56:28;;;;;;;20.70;8.45;;;26.10;99.90;;;;;;5010363;28;20561;-80
2022/05/18 07:58:55;;;;;;;17.15;7.15;;;26.20;99.90;;;;;;5022753;28;20042;-76
2022/05/18 08:01:21;;;;;;;18.35;8.00;;;26.30;99.90;;;;;;5021158;28;20046;-77
2022/05/18 08:03:49;;;;;;;16.63;7.28;;;26.40;99.90;;;;;;5025641;28;20065;-77
2022/05/18 08:06:17;;;;;;;20.48;7.35;;;26.50;99.90;;;;;;5025220;28;20033;-77
2022/05/18 08:08:43;;;;;;;18.13;7.00;;;26.60;99.90;;;;;;5046510;28;20264;-76
2022/05/18 08:16:40;;;;;;;20.80;6.68;;;26.70;99.90;;;;;;5023666;28;20053;-77
2022/05/18 08:19:10;;;;;;;13.57;5.13;;;26.70;99.90;;;;;;5020489;28;20033;-78
2022/05/18 08:21:38;;;;;;;17.02;5.03;;;26.70;99.90;;;;;;5016688;28;20080;-78
2022/05/18 08:24:06;;;;;;;13.80;5.10;;;26.80;99.80;;;;;;5030942;28;20041;-77
2022/05/18 08:26:32;;;;;;;15.30;5.97;;;26.80;99.80;;;;;;5020679;28;20956;-77
2022/05/18 08:29:00;;;;;;;14.30;6.05;;;26.80;99.90;;;;;;5014870;28;20064;-77
2022/05/18 08:31:26;;;;;;;16.08;6.60;;;26.90;99.90;;;;;;5034205;28;20080;-77
2022/05/18 08:33:53;;;;;;;20.73;6.35;;;27.10;99.90;;;;;;5028055;28;20048;-77
2022/05/18 08:36:23;;;;;;;21.10;8.15;;;27.10;99.80;;;;;;5020032;28;20473;-77
2022/05/18 08:38:50;;;;;;;13.88;7.05;;;27.10;99.90;;;;;;5026942;28;20438;-78
2022/05/18 08:41:29;;;;;;;20.33;6.20;;;27.20;99.80;;;;;;5028445;28;20116;-77
2022/05/18 08:44:03;;;;;;;16.23;5.43;;;27.30;99.20;;;;;;5031350;28;20037;-78
2022/05/18 08:46:48;;;;;;;19.88;6.05;;;27.40;98.80;;;;;;5028482;28;20120;-76
2022/05/18 08:49:51;;;;;;;16.75;6.20;;;27.50;98.50;;;;;;5022758;28;20052;-77
2022/05/18 08:52:51;;;;;;;19.88;7.07;;;27.50;98.30;;;;;;5032576;28;20033;-76
2022/05/18 08:55:37;;;;;;;16.42;6.32;;;27.60;99.10;;;;;;5034858;28;20029;-76
2022/05/18 08:58:12;;;;;;;15.77;5.88;;;27.70;99.00;;;;;;5031729;28;20044;-77
2022/05/18 09:00:47;;;;;;;16.27;5.75;;;27.80;98.30;;;;;;5021775;28;20033;-76
2022/05/18 09:03:20;;;;;;;19.33;7.10;;;27.70;98.40;;;;;;5016883;28;20037;-78
2022/05/18 09:06:25;;;;;;;18.25;6.80;;;27.60;99.00;;;;;;5018829;28;20037;-77
2022/05/18 09:11:47;;;;;;;18.35;5.82;;;27.60;99.20;;;;;;5016005;28;20195;-77
2022/05/18 09:14:17;;;;;;;12.70;5.85;;;27.60;98.50;;;;;;5016846;28;20072;-77
2022/05/18 09:17:03;;;;;;;12.57;5.65;;;27.60;98.10;;;;;;5017133;28;20041;-77
2022/05/18 09:19:51;;;;;;;16.13;4.65;;;27.90;98.10;;;;;;5030798;28;20041;-76
2022/05/18 09:22:33;;;;;;;13.65;5.45;;;28.20;97.60;;;;;;5020744;28;20041;-77
2022/05/18 09:25:06;;;;;;;14.90;6.15;;;28.30;97.00;;;;;;5020482;28;20037;-73
2022/05/18 09:28:11;;;;;;;16.65;6.22;;;28.40;97.40;;;;;;5022952;28;20044;-78
2022/05/18 09:30:55;;;;;;;12.77;5.45;;;28.40;97.80;;;;;;5004405;28;20045;-78
2022/05/18 09:33:51;;;;;;;12.77;5.30;;;28.70;97.50;;;;;;5035943;28;20045;-78
2022/05/18 09:36:49;;;;;;;12.93;5.20;;;28.70;97.00;;;;;;5040637;28;20615;-77
2022/05/18 09:39:19;;;;;;;16.58;5.15;;;28.70;97.10;;;;;;5040283;28;20042;-78
2022/05/18 09:42:00;;;;;;;10.32;4.88;;;28.90;96.70;;;;;;5023074;28;20046;-78
2022/05/18 09:44:32;;;;;;;19.33;6.00;;;29.10;96.80;;;;;;5022746;28;20530;-78
2022/05/18 09:46:59;;;;;;;;;;;29.20;96.60;;;;;;5039978;28;20077;-77
2022/05/18 09:49:43;;;;;;;21.15;5.70;;;29.40;96.30;;;;;;5028366;28;19913;-78
2022/05/18 09:52:12;;;;;;;14.65;5.47;;;29.30;96.10;;;;;;5025112;28;20050;-78
2022/05/18 09:54:39;;;;;;;16.38;5.38;;;29.40;96.20;;;;;;5029841;28;20099;-77
2022/05/18 09:57:24;;;;;;;15.10;5.35;;;29.50;96.20;;;;;;5051151;28;20041;-77
2022/05/18 09:59:56;;;;;;;13.00;4.45;;;29.60;96.20;;;;;;5026704;28;20407;-78
2022/05/18 10:08:19;;;;;;;16.30;5.15;;;29.50;95.80;;;;;;5025362;28;20078;-78
2022/05/18 10:10:46;;;;;;;13.00;5.25;;;29.30;96.10;;;;;;5027798;28;20072;-78
2022/05/18 10:13:18;;;;;;;14.75;5.20;;;29.50;96.30;;;;;;5039690;28;20065;-77
2022/05/18 10:15:49;;;;;;;17.35;5.38;;;29.70;96.00;;;;;;5056758;28;20049;-78
2022/05/18 10:18:41;;;;;;;21.92;5.55;;;29.80;96.10;;;;;;5023795;28;20050;-79
2022/05/18 10:21:26;;;;;;;17.95;5.50;;;30.10;95.90;;;;;;5030795;28;20045;-77
2022/05/18 10:23:55;;;;;;;14.40;5.35;;;30.00;95.60;;;;;;5041352;28;20033;-78
2022/05/18 10:26:30;;;;;;;13.02;4.68;;;30.00;95.70;;;;;;5014698;28;20120;-78
2022/05/18 10:29:08;;;;;;;14.65;5.20;;;30.00;95.60;;;;;;5011129;28;20405;-77
2022/05/18 10:31:46;;;;;;;11.68;5.10;;;29.80;95.70;;;;;;5024162;28;20030;-77
2022/05/18 10:34:18;;;;;;;14.15;5.18;;;29.90;95.50;;;;;;5015231;28;20045;-78
2022/05/18 10:36:58;;;;;;;13.60;5.22;;;29.70;95.40;;;;;;5027728;28;20053;-77
2022/05/18 10:39:36;;;;;;;21.17;5.97;;;29.90;95.30;;;;;;5012561;28;20118;-78
2022/05/18 10:42:22;;;;;;;13.05;4.70;;;29.90;95.30;;;;;;5034146;28;20044;-78
2022/05/18 10:44:48;;;;;;;18.30;5.72;;;29.90;95.40;;;;;;5028815;28;20875;-77
2022/05/18 10:47:26;;;;;;;16.48;5.75;;;29.90;95.50;;;;;;5030061;28;20521;-77
2022/05/18 10:50:09;;;;;;;15.38;5.63;;;29.90;95.20;;;;;;5031366;28;20041;-77
2022/05/18 10:52:35;;;;;;;15.73;5.30;;;30.20;95.00;;;;;;5025748;28;20061;-77
2022/05/18 10:55:14;;;;;;;13.65;5.22;;;30.20;94.70;;;;;;5030338;28;20083;-77
2022/05/18 10:57:52;;;;;;;14.40;4.90;;;30.40;94.50;;;;;;5034201;28;20044;-77
2022/05/18 11:00:20;;;;;;;10.88;4.18;;;30.60;94.60;;;;;;5042387;28;20420;-77
2022/05/18 11:03:20;;;;;;;15.18;4.45;;;30.50;94.30;;;;;;5047000;28;20037;-77
2022/05/18 11:06:12;;;;;;;14.73;4.55;;;30.80;94.30;;;;;;5022184;28;20339;-77
2022/05/18 11:08:39;;;;;;;14.80;5.18;;;31.30;94.10;;;;;;5020066;28;20136;-77
2022/05/18 11:11:34;;;;;;;17.58;4.95;;;31.50;93.90;;;;;;5020886;28;20712;-77
2022/05/18 11:14:19;;;;;;;11.00;4.50;;;31.70;93.50;;;;;;5015286;28;20374;-77
2022/05/18 11:16:57;;;;;;;14.55;4.47;;;31.60;93.30;;;;;;5013866;28;20099;-77
2022/05/18 11:19:42;;;;;;;14.27;5.03;;;31.90;93.20;;;;;;5017258;28;20049;-78
2022/05/18 11:22:37;;;;;;;14.68;4.28;;;32.00;92.90;;;;;;5016877;28;20644;-77
2022/05/18 11:25:40;;;;;;;12.05;4.38;;;32.10;92.70;;;;;;5018933;28;20124;-77
2022/05/18 11:28:15;;;;;;;18.48;4.82;;;32.20;92.60;;;;;;5030343;28;20104;-77
2022/05/18 11:30:55;;;;;;;13.40;4.70;;;32.20;92.40;;;;;;5031527;28;20445;-77
2022/05/18 11:33:39;;;;;;;12.95;4.50;;;31.30;92.80;;;;;;5051016;28;20512;-78
2022/05/18 11:36:28;;;;;;;13.75;4.22;;;31.00;93.10;;;;;;5020762;28;20041;-78
2022/05/18 11:39:05;;;;;;;11.50;4.18;;;31.80;93.00;;;;;;5053784;28;20065;-78
2022/05/18 11:41:38;;;;;;;12.95;4.80;;;32.00;92.50;;;;;;5035564;28;20843;-78
2022/05/18 11:44:09;;;;;;;13.82;4.82;;;32.40;92.50;;;;;;5040336;28;20104;-77
2022/05/18 11:47:00;;;;;;;;;;;33.00;92.00;;;;;;5020463;28;20061;-78
2022/05/18 11:50:16;;;;;;;12.30;4.38;;;33.00;91.70;;;;;;5021201;28;19916;-76
2022/05/18 11:53:22;;;;;;;12.18;4.20;;;32.80;91.60;;;;;;5017115;28;20562;-77
2022/05/18 11:56:13;;;;;;;13.48;4.32;;;33.10;91.30;;;;;;5017439;28;20054;-78
2022/05/18 12:02:14;;;;;;;13.10;4.35;;;33.50;91.10;;;;;;5016261;28;20347;-77
2022/05/18 12:04:50;;;;;;;9.57;3.55;;;33.20;90.80;;;;;;5017781;28;20493;-79
2022/05/18 12:07:32;;;;;;;15.20;5.57;;;33.20;90.80;;;;;;5020677;28;20048;-77
2022/05/18 12:10:29;;;;;;;15.32;4.15;;;33.20;90.70;;;;;;5025275;28;20656;-75
2022/05/18 12:13:03;;;;;;;10.80;4.25;;;33.30;91.00;;;;;;5048299;28;20068;-77
2022/05/18 12:15:40;;;;;;;10.18;4.00;;;33.00;91.00;;;;;;5027990;28;20050;-77
2022/05/18 12:18:32;;;;;;;14.00;4.80;;;32.60;91.30;;;;;;5037540;28;20465;-77
2022/05/18 12:21:07;;;;;;;11.38;4.25;;;32.50;91.00;;;;;;5020641;28;20072;-77
2022/05/18 12:23:42;;;;;;;11.00;4.50;;;31.80;91.50;;;;;;5024641;28;20481;-78
2022/05/18 12:26:09;;;;;;;11.52;3.72;;;31.90;91.60;;;;;;5023640;28;20033;-76
2022/05/18 12:28:36;;;;;;;9.57;4.55;;;32.30;91.10;;;;;;5012750;28;20063;-77
2022/05/18 12:31:03;;;;;;;10.65;3.53;;;32.40;90.90;;;;;;5020222;28;20227;-76
2022/05/18 12:33:34;;;;;;;13.50;4.32;;;32.50;90.90;;;;;;5017088;28;20045;-77
2022/05/18 12:36:05;;;;;;;13.30;4.45;;;33.00;91.10;;;;;;5027277;28;20132;-77
2022/05/18 12:38:51;;;;;;;;;;;33.20;90.90;;;;;;5020798;28;20076;-76
2022/05/18 12:41:26;;;;;;;12.23;3.88;;;33.50;90.10;;;;;;5009465;28;19928;-77
2022/05/18 12:44:04;;;;;;;12.38;4.32;;;33.30;90.20;;;;;;5020720;28;20029;-77
2022/05/18 12:46:44;;;;;;;12.18;4.00;;;33.60;90.20;;;;;;5014136;28;20786;-77
2022/05/18 12:49:19;;;;;;;9.53;3.90;;;34.00;90.00;;;;;;5047715;28;20037;-77
2022/05/18 12:51:59;;;;;;;27.98;11.10;;;33.50;89.80;;;;;;5026836;28;20048;-78
2022/05/18 12:54:40;;;;;;;19.10;5.93;;;33.90;89.40;;;;;;5019859;28;20378;-78
2022/05/18 12:57:09;;;;;;;14.50;4.80;;;33.90;89.50;;;;;;5055735;28;20042;-78
2022/05/18 12:59:58;;;;;;;10.65;4.53;;;33.30;89.50;;;;;;5026093;28;20041;-78
2022/05/18 13:02:57;;;;;;;12.55;4.50;;;33.50;89.80;;;;;;5036842;28;20053;-78
2022/05/18 13:05:26;;;;;;;14.00;4.22;;;33.80;89.70;;;;;;5032861;28;20041;-79
2022/05/18 13:07:55;;;;;;;12.25;4.20;;;33.50;89.80;;;;;;5057389;28;20033;-80
2022/05/18 13:10:28;;;;;;;13.20;3.97;;;33.10;90.00;;;;;;5031717;28;20111;-78
2022/05/18 13:13:00;;;;;;;11.45;3.80;;;33.20;89.90;;;;;;5027412;28;20073;-78
2022/05/18 13:15:59;;;;;;;14.23;3.78;;;33.20;89.10;;;;;;5052516;28;20043;-78
2022/05/18 13:18:33;;;;;;;10.82;4.03;;;33.40;89.20;;;;;;5026885;28;20448;-79